createdAt,value
2022-08-16T00:01:26.595Z,99706.60
2022-08-16T00:04:01.951Z,99701.40
2022-08-16T00:06:33.197Z,99702.20
2022-08-16T00:09:01.277Z,99699.60
2022-08-16T00:11:29.159Z,99692.60
2022-08-16T00:13:57.373Z,99687.40
2022-08-16T00:17:01.327Z,99691.40
2022-08-16T00:19:28.208Z,99692.80
2022-08-16T00:22:03.037Z,99686.80
2022-08-16T00:24:34.861Z,99684.60
2022-08-16T00:27:04.956Z,99683.80
2022-08-16T00:29:33.362Z,99682.00
2022-08-16T00:32:06.588Z,99680.00
2022-08-16T00:34:44.457Z,99682.40
2022-08-16T00:37:58.553Z,99681.40
2022-08-16T00:40:36.913Z,99684.20
2022-08-16T00:43:21.594Z,99677.00
2022-08-16T00:46:22.405Z,99678.80
2022-08-16T00:48:54.208Z,99680.00
2022-08-16T00:51:26.122Z,99681.80
2022-08-16T00:53:57.766Z,99683.60
2022-08-16T00:56:56.355Z,99680.40
2022-08-16T00:59:26.019Z,99676.00
2022-08-16T01:01:54.909Z,99667.20
2022-08-16T01:04:30.081Z,99668.20
2022-08-16T01:07:03.780Z,99668.60
2022-08-16T01:09:42.769Z,99665.20
2022-08-16T01:12:12.038Z,99663.40
2022-08-16T01:15:00.154Z,99657.80
2022-08-16T01:17:36.954Z,99659.40
2022-08-16T01:20:23.592Z,99655.80
2022-08-16T01:23:17.112Z,99659.40
2022-08-16T01:25:59.886Z,99658.60
2022-08-16T01:28:45.515Z,99664.00
2022-08-16T01:31:16.571Z,99667.00
2022-08-16T01:33:45.702Z,99668.40
2022-08-16T01:36:18.744Z,99669.40
2022-08-16T01:38:54.186Z,99671.40
2022-08-16T01:41:30.631Z,99676.20
2022-08-16T01:44:01.665Z,99674.60
2022-08-16T01:46:41.154Z,99670.00
2022-08-16T01:49:23.433Z,99671.00
2022-08-16T01:52:29.326Z,99668.20
2022-08-16T01:55:22.182Z,99667.40
2022-08-16T01:57:53.730Z,99671.00
2022-08-16T02:00:28.818Z,99670.00
2022-08-16T02:02:59.796Z,99667.80
2022-08-16T02:05:30.575Z,99669.20
2022-08-16T02:07:59.415Z,99672.20
2022-08-16T02:10:28.029Z,99677.00
2022-08-16T02:13:00.800Z,99672.60
2022-08-16T02:15:35.596Z,99678.00
2022-08-16T02:18:13.777Z,99670.80
2022-08-16T02:20:53.760Z,99668.40
2022-08-16T02:23:23.202Z,99669.60
2022-08-16T02:25:54.015Z,99669.20
2022-08-16T02:28:25.349Z,99670.20
2022-08-16T02:30:56.523Z,99668.40
2022-08-16T02:33:44.315Z,99672.00
2022-08-16T02:36:42.244Z,99663.20
2022-08-16T02:39:10.647Z,99658.80
2022-08-16T02:41:41.945Z,99660.60
2022-08-16T02:44:14.031Z,99658.40
2022-08-16T02:46:50.414Z,99662.60
2022-08-16T02:49:23.090Z,99664.00
2022-08-16T02:52:24.891Z,99664.60
2022-08-16T02:54:59.089Z,99666.00
2022-08-16T02:57:27.697Z,99668.60
2022-08-16T02:59:56.337Z,99670.00
2022-08-16T03:02:32.073Z,99664.00
2022-08-16T03:05:02.397Z,99661.40
2022-08-16T03:07:36.973Z,99660.80
2022-08-16T03:10:09.799Z,99659.20
2022-08-16T03:12:56.457Z,99662.20
2022-08-16T03:15:27.853Z,99655.20
2022-08-16T03:17:56.734Z,99660.80
2022-08-16T03:20:32.237Z,99658.80
2022-08-16T03:23:02.175Z,99661.20
2022-08-16T03:25:41.019Z,99659.60
2022-08-16T03:28:13.212Z,99661.40
2022-08-16T03:30:41.145Z,99659.40
2022-08-16T03:33:10.929Z,99654.00
2022-08-16T03:35:45.995Z,99654.40
2022-08-16T03:38:32.627Z,99656.20
2022-08-16T03:41:17.136Z,99659.60
2022-08-16T03:43:56.246Z,99656.80
2022-08-16T03:46:48.374Z,99660.80
2022-08-16T03:49:18.054Z,99667.60
2022-08-16T03:51:48.180Z,99667.60
2022-08-16T03:54:22.510Z,99671.80
2022-08-16T03:56:56.906Z,99675.80
2022-08-16T03:59:29.397Z,99681.20
2022-08-16T04:02:00.754Z,99684.60
2022-08-16T04:04:32.839Z,99682.20
2022-08-16T04:07:07.784Z,99688.40
2022-08-16T04:09:38.994Z,99692.00
2022-08-16T04:12:53.705Z,99689.80
2022-08-16T04:15:02.358Z,99682.00
2022-08-16T04:17:30.897Z,99673.00
2022-08-16T04:19:59.778Z,99675.00
2022-08-16T04:22:28.259Z,99679.60
2022-08-16T04:25:01.103Z,99678.40
2022-08-16T04:27:34.628Z,99677.60
2022-08-16T04:30:10.977Z,99682.00
2022-08-16T04:32:43.906Z,99679.20
2022-08-16T04:35:23.263Z,99685.00
2022-08-16T04:37:53.971Z,99687.20
2022-08-16T04:40:27.468Z,99692.80
2022-08-16T04:42:56.061Z,99697.20
2022-08-16T04:45:35.825Z,99703.60
2022-08-16T04:48:28.263Z,99705.20
2022-08-16T04:51:01.180Z,99713.60
2022-08-16T04:53:41.519Z,99711.20
2022-08-16T04:56:11.155Z,99716.60
2022-08-16T04:58:46.062Z,99714.20
2022-08-16T05:01:18.048Z,99708.20
2022-08-16T05:03:59.991Z,99705.00
2022-08-16T05:06:42.146Z,99706.40
2022-08-16T05:09:19.096Z,99713.00
2022-08-16T05:11:51.850Z,99723.40
2022-08-16T05:14:42.146Z,99725.80
2022-08-16T05:17:08.104Z,99724.60
2022-08-16T05:19:36.752Z,99720.00
2022-08-16T05:22:18.301Z,99720.80
2022-08-16T05:24:49.488Z,99720.60
2022-08-16T05:27:23.499Z,99714.80
2022-08-16T05:29:59.365Z,99713.80
2022-08-16T05:32:33.005Z,99720.40
2022-08-16T05:35:10.939Z,99717.80
2022-08-16T05:37:41.967Z,99728.40
2022-08-16T05:40:13.909Z,99725.80
2022-08-16T05:42:46.095Z,99726.20
2022-08-16T05:45:21.462Z,99724.20
2022-08-16T05:47:59.837Z,99724.80
2022-08-16T05:50:34.507Z,99728.40
2022-08-16T05:53:03.271Z,99726.20
2022-08-16T05:55:31.380Z,99726.40
2022-08-16T05:58:03.683Z,99729.20
2022-08-16T06:00:33.093Z,99723.20
2022-08-16T06:03:01.271Z,99723.20
2022-08-16T06:05:50.223Z,99722.60
2022-08-16T06:08:32.306Z,99728.60
2022-08-16T06:11:13.358Z,99725.40
2022-08-16T06:13:43.434Z,99730.20
2022-08-16T06:16:17.995Z,99733.60
2022-08-16T06:18:48.138Z,99735.40
2022-08-16T06:21:22.642Z,99730.80
2022-08-16T06:23:54.174Z,99737.40
2022-08-16T06:26:24.158Z,99739.40
2022-08-16T06:29:04.959Z,99738.40
2022-08-16T06:31:46.744Z,99740.60
2022-08-16T06:34:55.442Z,99745.80
2022-08-16T06:37:07.504Z,99749.40
2022-08-16T06:39:49.203Z,99747.80
2022-08-16T06:42:28.094Z,99748.60
2022-08-16T06:45:12.029Z,99744.60
2022-08-16T06:47:53.396Z,99742.00
2022-08-16T06:50:28.594Z,99746.60
2022-08-16T06:53:00.560Z,99748.40
2022-08-16T06:55:35.095Z,99744.80
2022-08-16T06:58:21.674Z,99749.60
2022-08-16T07:00:52.093Z,99753.60
2022-08-16T07:03:28.006Z,99757.00
2022-08-16T07:06:00.790Z,99757.20
2022-08-16T07:08:35.566Z,99764.00
2022-08-16T07:11:05.419Z,99763.80
2022-08-16T07:14:00.373Z,99766.40
2022-08-16T07:16:27.639Z,99773.40
2022-08-16T07:18:58.696Z,99768.40
2022-08-16T07:21:54.341Z,99764.40
2022-08-16T07:24:30.428Z,99765.80
2022-08-16T07:27:03.044Z,99773.20
2022-08-16T07:29:32.122Z,99784.20
2022-08-16T07:32:01.300Z,99779.80
2022-08-16T07:34:35.213Z,99783.80
2022-08-16T07:37:11.079Z,99786.40
2022-08-16T07:39:57.337Z,99785.40
2022-08-16T07:42:34.869Z,99789.40
2022-08-16T07:45:10.366Z,99790.80
2022-08-16T07:47:42.348Z,99795.00
2022-08-16T07:50:57.921Z,99800.20
2022-08-16T07:53:02.505Z,99795.80
2022-08-16T07:55:45.437Z,99788.20
2022-08-16T07:58:18.465Z,99792.40
2022-08-16T08:01:10.657Z,99798.00
2022-08-16T08:03:48.849Z,99799.40
2022-08-16T08:06:24.952Z,99800.60
2022-08-16T08:08:57.143Z,99798.60
2022-08-16T08:11:29.854Z,99802.60
2022-08-16T08:14:03.919Z,99802.80
2022-08-16T08:16:39.545Z,99806.00
2022-08-16T08:19:20.191Z,99804.60
2022-08-16T08:22:01.116Z,99801.20
2022-08-16T08:24:45.239Z,99803.60
2022-08-16T08:27:22.419Z,99809.60
2022-08-16T08:30:49.447Z,99808.40
2022-08-16T08:32:57.255Z,99817.60
2022-08-16T08:35:28.515Z,99812.20
2022-08-16T08:37:56.934Z,99809.00
2022-08-16T08:40:30.042Z,99811.40
2022-08-16T08:43:12.119Z,99820.00
2022-08-16T08:45:57.616Z,99828.00
2022-08-16T08:48:33.744Z,99824.80
2022-08-16T08:51:09.529Z,99822.40
2022-08-16T08:54:10.406Z,99827.60
2022-08-16T08:56:45.300Z,99837.60
2022-08-16T08:59:34.703Z,99840.80
2022-08-16T09:02:10.032Z,99840.20
2022-08-16T09:04:47.821Z,99846.00
2022-08-16T09:07:18.577Z,99841.60
2022-08-16T09:09:48.563Z,99841.00
2022-08-16T09:12:31.194Z,99842.80
2022-08-16T09:15:13.625Z,99843.20
2022-08-16T09:17:52.287Z,99835.80
2022-08-16T09:20:27.664Z,99837.60
2022-08-16T09:22:57.230Z,99841.80
2022-08-16T09:25:34.414Z,99846.20
2022-08-16T09:28:10.424Z,99843.00
2022-08-16T09:30:55.743Z,99843.00
2022-08-16T09:33:23.534Z,99842.40
2022-08-16T09:35:53.877Z,99849.00
2022-08-16T09:38:32.466Z,99852.20
2022-08-16T09:41:03.830Z,99852.20
2022-08-16T09:43:58.807Z,99852.60
2022-08-16T09:46:45.064Z,99851.00
2022-08-16T09:49:12.087Z,99855.20
2022-08-16T09:51:40.412Z,99857.00
2022-08-16T09:54:10.736Z,99854.00
2022-08-16T09:56:52.208Z,99856.00
2022-08-16T09:59:30.682Z,99856.20
2022-08-16T10:02:00.882Z,99856.80
2022-08-16T10:04:54.474Z,99856.00
2022-08-16T10:07:43.971Z,99859.20
2022-08-16T10:10:18.810Z,99864.20
2022-08-16T10:13:16.564Z,99872.20
2022-08-16T10:15:55.142Z,99869.80
2022-08-16T10:18:56.319Z,99874.40
2022-08-16T10:21:13.774Z,99878.80
2022-08-16T10:23:46.669Z,99877.40
2022-08-16T10:27:20.623Z,99873.00
2022-08-16T10:29:06.179Z,99871.00
2022-08-16T10:31:45.485Z,99876.40
2022-08-16T10:34:30.801Z,99876.40
2022-08-16T10:37:03.708Z,99880.80
2022-08-16T10:39:40.673Z,99878.80
2022-08-16T10:42:13.166Z,99882.80
2022-08-16T10:44:42.283Z,99894.00
2022-08-16T10:47:11.669Z,99896.00
2022-08-16T10:49:39.658Z,99901.60
2022-08-16T10:52:18.452Z,99907.80
2022-08-16T10:57:35.383Z,99919.20
2022-08-16T11:00:22.320Z,99929.00
2022-08-16T11:03:41.872Z,99928.80
2022-08-16T11:08:35.798Z,99939.00
2022-08-16T11:11:12.867Z,99944.80
2022-08-16T11:14:10.963Z,99943.20
2022-08-16T11:19:25.851Z,99940.60
2022-08-16T11:22:38.597Z,99945.40
2022-08-16T11:24:45.468Z,99943.20
2022-08-16T11:27:35.364Z,99945.40
2022-08-16T11:30:08.992Z,99948.60
2022-08-16T11:32:37.831Z,99950.00
2022-08-16T11:35:14.674Z,99953.20
2022-08-16T11:38:24.055Z,99956.80
2022-08-16T11:40:57.355Z,99953.00
2022-08-16T11:43:34.976Z,99952.00
2022-08-16T11:46:45.161Z,99954.40
2022-08-16T11:48:58.190Z,99957.20
2022-08-16T11:51:25.987Z,99958.60
2022-08-16T11:53:54.546Z,99959.80
2022-08-16T11:56:37.848Z,99961.40
2022-08-16T11:59:12.826Z,99965.60
2022-08-16T12:01:44.167Z,99970.80
2022-08-16T12:04:24.450Z,99969.40
2022-08-16T12:06:54.609Z,99968.40
2022-08-16T12:09:24.878Z,99962.40
2022-08-16T12:12:02.913Z,99965.40
2022-08-16T12:14:37.550Z,99967.20
2022-08-16T12:17:08.480Z,99961.20
2022-08-16T12:19:37.283Z,99962.00
2022-08-16T12:22:18.984Z,99960.00
2022-08-16T12:24:52.285Z,99955.20
2022-08-16T12:27:25.959Z,99952.60
2022-08-16T12:29:54.959Z,99956.00
2022-08-16T12:32:39.566Z,99958.20
2022-08-16T12:35:16.084Z,99948.00
2022-08-16T12:37:47.291Z,99942.80
2022-08-16T12:40:24.561Z,99940.20
2022-08-16T12:42:59.123Z,99945.00
2022-08-16T12:45:33.729Z,99944.20
2022-08-16T12:48:42.183Z,99938.80
2022-08-16T12:51:19.681Z,99935.60
2022-08-16T12:53:51.715Z,99938.80
2022-08-16T12:56:26.054Z,99939.80
2022-08-16T12:58:56.713Z,99941.00
2022-08-16T13:01:31.354Z,99939.00
2022-08-16T13:04:11.866Z,99942.60
2022-08-16T13:06:52.067Z,99936.60
2022-08-16T13:09:26.410Z,99934.60
2022-08-16T13:12:07.483Z,99937.20
2022-08-16T13:14:42.983Z,99936.80
2022-08-16T13:17:20.568Z,99937.00
2022-08-16T13:20:09.774Z,99939.80
2022-08-16T13:22:46.356Z,99936.40
2022-08-16T13:25:21.131Z,99937.80
2022-08-16T13:28:02.280Z,99933.20
2022-08-16T13:30:44.156Z,99942.00
2022-08-16T13:33:26.148Z,99936.00
2022-08-16T13:36:00.895Z,99928.80
2022-08-16T13:38:36.454Z,99931.00
2022-08-16T13:41:12.437Z,99930.00
2022-08-16T13:43:41.808Z,99935.00
2022-08-16T13:46:10.041Z,99924.20
2022-08-16T13:48:44.709Z,99923.60
2022-08-16T13:51:18.472Z,99926.80
2022-08-16T13:53:59.163Z,99921.00
2022-08-16T13:56:38.161Z,99922.40
2022-08-16T13:59:19.668Z,99922.60
2022-08-16T14:01:59.786Z,99917.20
2022-08-16T14:04:34.388Z,99927.00
2022-08-16T14:07:08.945Z,99925.60
2022-08-16T14:09:38.013Z,99921.20
2022-08-16T14:12:24.241Z,99922.20
2022-08-16T14:14:56.403Z,99920.00
2022-08-16T14:17:27.857Z,99919.80
2022-08-16T14:19:59.608Z,99921.20
2022-08-16T14:22:35.702Z,99918.40
2022-08-16T14:25:10.133Z,99916.40
2022-08-16T14:27:42.131Z,99916.80
2022-08-16T14:30:15.469Z,99915.00
2022-08-16T14:32:49.606Z,99916.20
2022-08-16T14:35:36.632Z,99914.20
2022-08-16T14:38:18.174Z,99914.60
2022-08-16T14:40:54.852Z,99917.40
2022-08-16T14:43:26.025Z,99914.00
2022-08-16T14:45:57.995Z,99906.80
2022-08-16T14:48:26.749Z,99907.60
2022-08-16T14:50:55.695Z,99906.60
2022-08-16T14:53:26.446Z,99898.20
2022-08-16T14:55:55.532Z,99901.80
2022-08-16T14:58:34.467Z,99903.40
2022-08-16T15:01:10.237Z,99901.60
2022-08-16T15:03:38.934Z,99904.60
2022-08-16T15:06:14.579Z,99908.60
2022-08-16T15:08:45.190Z,99914.80
2022-08-16T15:11:14.185Z,99913.80
2022-08-16T15:13:42.118Z,99913.00
2022-08-16T15:16:09.903Z,99916.20
2022-08-16T15:18:39.312Z,99915.80
2022-08-16T15:21:08.537Z,99919.00
2022-08-16T15:23:36.943Z,99920.20
2022-08-16T15:26:09.095Z,99919.40
2022-08-16T15:28:38.504Z,99919.60
2022-08-16T15:31:10.540Z,99921.40
2022-08-16T15:33:51.039Z,99921.60
2022-08-16T15:36:25.907Z,99923.20
2022-08-16T15:39:06.900Z,99926.00
2022-08-16T15:41:44.278Z,99922.40
2022-08-16T15:44:22.117Z,99930.80
2022-08-16T15:46:58.669Z,99926.80
2022-08-16T15:49:32.924Z,99924.80
2022-08-16T15:52:11.161Z,99926.80
2022-08-16T15:54:52.295Z,99929.40
2022-08-16T15:57:24.233Z,99931.00
2022-08-16T15:59:56.342Z,99922.40
2022-08-16T16:02:40.694Z,99920.40
2022-08-16T16:05:10.195Z,99920.60
2022-08-16T16:07:56.141Z,99916.60
2022-08-16T16:10:29.292Z,99915.20
2022-08-16T16:13:03.732Z,99915.60
2022-08-16T16:15:47.182Z,99920.60
2022-08-16T16:18:17.651Z,99919.60
2022-08-16T16:20:59.361Z,99923.40
2022-08-16T16:23:53.980Z,99924.20
2022-08-16T16:26:26.838Z,99924.80
2022-08-16T16:29:07.403Z,99921.00
2022-08-16T16:31:44.188Z,99915.80
2022-08-16T16:34:32.350Z,99918.00
2022-08-16T16:37:04.278Z,99919.00
2022-08-16T16:39:32.761Z,99915.20
2022-08-16T16:42:00.706Z,99917.40
2022-08-16T16:44:33.541Z,99917.60
2022-08-16T16:47:04.226Z,99910.40
2022-08-16T16:49:32.972Z,99911.00
2022-08-16T16:52:07.069Z,99915.20
2022-08-16T16:54:35.783Z,99919.40
2022-08-16T16:57:04.204Z,99918.00
2022-08-16T16:59:32.255Z,99925.40
2022-08-16T17:02:41.844Z,99927.60
2022-08-16T17:04:48.887Z,99926.80
2022-08-16T17:07:17.580Z,99932.20
2022-08-16T17:09:48.544Z,99932.80
2022-08-16T17:12:25.143Z,99934.60
2022-08-16T17:14:57.345Z,99929.80
2022-08-16T17:17:25.272Z,99922.00
2022-08-16T17:19:54.177Z,99924.60
2022-08-16T17:22:23.460Z,99924.40
2022-08-16T17:24:53.213Z,99925.20
2022-08-16T17:27:33.019Z,99924.20
2022-08-16T17:30:15.709Z,99925.40
2022-08-16T17:32:50.707Z,99924.00
2022-08-16T17:35:33.693Z,99920.00
2022-08-16T17:38:09.438Z,99923.80
2022-08-16T17:40:58.522Z,99923.40
2022-08-16T17:43:36.107Z,99925.00
2022-08-16T17:46:06.966Z,99929.80
2022-08-16T17:48:56.104Z,99930.20
2022-08-16T17:51:26.107Z,99923.40
2022-08-16T17:53:55.075Z,99927.40
2022-08-16T17:56:22.867Z,99925.20
2022-08-16T17:58:50.614Z,99927.20
2022-08-16T18:01:26.770Z,99923.00
2022-08-16T18:04:08.833Z,99929.60
2022-08-16T18:06:39.848Z,99921.40
2022-08-16T18:09:08.684Z,99925.40
2022-08-16T18:11:41.352Z,99927.60
2022-08-16T18:14:13.159Z,99925.40
2022-08-16T18:16:41.639Z,99932.60
2022-08-16T18:19:10.693Z,99927.20
2022-08-16T18:21:57.545Z,99931.60
2022-08-16T18:24:29.332Z,99936.00
2022-08-16T18:27:25.339Z,99937.20
2022-08-16T18:29:47.239Z,99940.80
2022-08-16T18:32:21.976Z,99938.40
2022-08-16T18:34:54.796Z,99937.80
2022-08-16T18:37:23.981Z,99936.20
2022-08-16T18:39:52.014Z,99941.60
2022-08-16T18:42:20.940Z,99939.60
2022-08-16T18:44:49.142Z,99937.80
2022-08-16T18:47:16.943Z,99943.40
2022-08-16T18:49:44.990Z,99940.80
2022-08-16T18:52:25.631Z,99945.00
2022-08-16T18:55:02.982Z,99952.80
2022-08-16T18:57:42.704Z,99955.60
2022-08-16T19:00:14.679Z,99961.60
2022-08-16T19:02:58.348Z,99963.20
2022-08-16T19:05:30.835Z,99967.00
2022-08-16T19:07:58.931Z,99959.40
2022-08-16T19:10:27.096Z,99962.80
2022-08-16T19:12:55.375Z,99963.80
2022-08-16T19:15:28.874Z,99971.40
2022-08-16T19:17:57.138Z,99978.60
2022-08-16T19:20:27.413Z,99980.40
2022-08-16T19:23:05.185Z,99979.80
2022-08-16T19:25:47.063Z,99986.20
2022-08-16T19:28:51.734Z,99988.60
2022-08-16T19:31:32.745Z,99992.40
2022-08-16T19:34:03.874Z,99991.80
2022-08-16T19:36:36.902Z,99994.20
2022-08-16T19:39:13.627Z,99995.60
2022-08-16T19:41:52.115Z,100007.60
2022-08-16T19:44:23.233Z,100013.80
2022-08-16T19:46:51.414Z,100022.20
2022-08-16T19:49:19.404Z,100035.60
2022-08-16T19:51:48.079Z,100050.20
2022-08-16T19:54:16.474Z,100052.40
2022-08-16T19:56:44.314Z,100060.20
2022-08-16T19:59:19.454Z,100064.60
2022-08-16T20:01:52.427Z,100068.60
2022-08-16T20:04:23.593Z,100071.20
2022-08-16T20:06:53.859Z,100079.60
2022-08-16T20:09:23.380Z,100076.20
2022-08-16T20:11:53.637Z,100079.80
2022-08-16T20:14:25.378Z,100083.80
2022-08-16T20:16:57.413Z,100099.20
2022-08-16T20:19:35.239Z,100101.40
2022-08-16T20:22:35.594Z,100100.80
2022-08-16T20:25:10.527Z,100104.20
2022-08-16T20:27:40.379Z,100101.80
2022-08-16T20:30:11.873Z,100100.20
2022-08-16T20:32:40.726Z,100101.40
2022-08-16T20:35:11.819Z,100091.60
2022-08-16T20:37:42.319Z,100095.00
2022-08-16T20:40:29.679Z,100092.20
2022-08-16T20:43:09.738Z,100089.60
2022-08-16T20:45:39.983Z,100087.00
2022-08-16T20:48:08.100Z,100087.20
2022-08-16T20:50:37.431Z,100084.20
2022-08-16T20:53:07.027Z,100082.00
2022-08-16T20:55:37.765Z,100086.20
2022-08-16T20:58:06.132Z,100089.40
2022-08-16T21:00:34.069Z,100085.80
2022-08-16T21:03:08.700Z,100082.00
2022-08-16T21:05:37.115Z,100084.00
2022-08-16T21:08:50.569Z,100078.00
2022-08-16T21:10:54.423Z,100075.20
2022-08-16T21:13:25.344Z,100071.60
2022-08-16T21:15:53.397Z,100067.20
2022-08-16T21:18:21.168Z,100066.40
2022-08-16T21:20:48.984Z,100064.80
2022-08-16T21:23:17.503Z,100062.40
2022-08-16T21:25:52.749Z,100065.40
2022-08-16T21:28:41.430Z,100066.40
2022-08-16T21:31:17.229Z,100062.80
2022-08-16T21:33:55.383Z,100060.20
2022-08-16T21:36:34.956Z,100056.40
2022-08-16T21:39:06.367Z,100057.60
2022-08-16T21:41:38.385Z,100065.00
2022-08-16T21:44:06.457Z,100070.60
2022-08-16T21:46:34.472Z,100074.00
2022-08-16T21:49:04.587Z,100073.80
2022-08-16T21:51:32.411Z,100065.60
2022-08-16T21:54:00.285Z,100071.00
2022-08-16T21:56:28.979Z,100070.80
2022-08-16T21:58:57.032Z,100074.60
2022-08-16T22:01:24.981Z,100076.00
2022-08-16T22:04:03.660Z,100078.80
2022-08-16T22:06:43.265Z,100086.80
2022-08-16T22:09:15.695Z,100081.00
2022-08-16T22:11:44.902Z,100083.20
2022-08-16T22:14:12.887Z,100081.80
2022-08-16T22:16:42.201Z,100081.60
2022-08-16T22:19:11.647Z,100077.60
2022-08-16T22:21:39.596Z,100074.80
2022-08-16T22:24:07.881Z,100084.00
2022-08-16T22:26:42.302Z,100085.80
2022-08-16T22:29:13.839Z,100089.20
2022-08-16T22:31:44.375Z,100095.60
2022-08-16T22:34:14.024Z,100096.20
2022-08-16T22:36:42.596Z,100091.60
2022-08-16T22:39:13.385Z,100090.20
2022-08-16T22:41:45.343Z,100093.00
2022-08-16T22:44:14.484Z,100088.80
2022-08-16T22:46:43.053Z,100092.60
2022-08-16T22:49:12.366Z,100093.20
2022-08-16T22:51:41.224Z,100092.40
2022-08-16T22:54:45.888Z,100094.60
2022-08-16T22:56:57.694Z,100088.60
2022-08-16T22:59:25.543Z,100096.20
2022-08-16T23:01:53.597Z,100098.00
2022-08-16T23:04:23.987Z,100097.40
2022-08-16T23:06:52.248Z,100098.80
2022-08-16T23:09:20.928Z,100100.60
2022-08-16T23:11:49.056Z,100106.40
2022-08-16T23:14:17.484Z,100104.60
2022-08-16T23:16:47.297Z,100106.60
2022-08-16T23:19:16.847Z,100106.60
2022-08-16T23:21:47.162Z,100113.40
2022-08-16T23:24:20.354Z,100116.00
2022-08-16T23:26:49.323Z,100122.40
2022-08-16T23:29:24.732Z,100128.20
2022-08-16T23:32:08.807Z,100129.20
2022-08-16T23:34:36.748Z,100130.40
2022-08-16T23:37:04.610Z,100133.00
2022-08-16T23:39:32.835Z,100132.40
2022-08-16T23:42:00.770Z,100134.40
2022-08-16T23:44:55.176Z,100138.60
2022-08-16T23:47:16.423Z,100138.60
2022-08-16T23:50:01.223Z,100142.40
2022-08-16T23:52:38.441Z,100138.00
2022-08-16T23:55:18.291Z,100141.80
2022-08-16T23:57:47.513Z,100142.60
